createdAt,value
2019-05-03T00:00:08.962Z,90.04
2019-05-03T00:10:03.804Z,88.02
2019-05-03T00:20:08.916Z,86.79
2019-05-03T00:30:03.575Z,86.97
2019-05-03T00:40:08.970Z,88.93
2019-05-03T00:50:08.508Z,89.39
2019-05-03T01:00:04.150Z,90.38
2019-05-03T01:10:03.323Z,90.57
2019-05-03T01:20:08.620Z,91.05
2019-05-03T01:30:03.756Z,91.14
2019-05-03T01:40:08.960Z,91.03
2019-05-03T01:50:08.495Z,91.33
2019-05-03T02:00:03.782Z,91.35
2019-05-03T02:10:03.417Z,91.98
2019-05-03T02:20:03.212Z,91.98
2019-05-03T02:30:03.904Z,92.15
2019-05-03T02:40:08.862Z,92.46
2019-05-03T02:50:08.852Z,92.85
2019-05-03T03:00:09.564Z,93.17
2019-05-03T03:10:08.723Z,93.43
2019-05-03T03:20:06.171Z,93.80
2019-05-03T03:30:08.075Z,94.04
2019-05-03T03:40:08.746Z,93.43
2019-05-03T03:50:05.694Z,93.90
2019-05-03T04:00:08.905Z,94.09
2019-05-03T04:10:06.652Z,94.03
2019-05-03T04:20:07.224Z,93.93
2019-05-03T04:30:06.899Z,94.05
2019-05-03T04:40:08.731Z,94.09
2019-05-03T04:50:06.676Z,94.48
2019-05-03T05:00:15.790Z,94.18
2019-05-03T05:10:05.895Z,94.18
2019-05-03T05:20:08.594Z,94.15
2019-05-03T05:30:05.439Z,93.84
2019-05-03T05:40:06.823Z,93.56
2019-05-03T05:50:05.606Z,93.63
2019-05-03T06:00:05.525Z,93.02
2019-05-03T06:10:02.842Z,91.71
2019-05-03T06:20:09.088Z,92.29
2019-05-03T06:30:05.553Z,92.34
2019-05-03T06:40:09.055Z,91.04
2019-05-03T06:50:05.378Z,92.18
2019-05-03T07:00:06.004Z,91.68
2019-05-03T07:10:05.774Z,89.82
2019-05-03T07:20:08.662Z,89.23
2019-05-03T07:30:05.347Z,88.99
2019-05-03T07:40:07.777Z,88.29
2019-05-03T07:50:04.817Z,87.40
2019-05-03T08:00:05.536Z,89.86
2019-05-03T08:10:05.872Z,92.27
2019-05-03T08:20:08.432Z,91.84
2019-05-03T08:30:05.194Z,88.85
2019-05-03T08:40:08.356Z,89.36
2019-05-03T08:50:02.457Z,85.91
2019-05-03T09:00:05.136Z,85.41
2019-05-03T09:10:16.669Z,84.76
2019-05-03T09:20:05.076Z,84.32
2019-05-03T09:30:05.639Z,84.82
2019-05-03T09:40:04.882Z,85.71
2019-05-03T09:50:08.677Z,85.83
2019-05-03T10:00:05.703Z,86.12
2019-05-03T10:10:08.257Z,89.82
2019-05-03T10:20:02.911Z,87.20
2019-05-03T10:30:15.030Z,86.40
2019-05-03T10:40:09.206Z,87.70
2019-05-03T10:50:04.477Z,87.89
2019-05-03T11:00:05.408Z,86.28
2019-05-03T11:10:02.536Z,82.83
2019-05-03T11:20:02.871Z,82.42
2019-05-03T11:30:05.259Z,78.80
2019-05-03T11:40:05.385Z,78.01
2019-05-03T11:50:08.110Z,78.42
2019-05-03T12:00:04.867Z,77.52
2019-05-03T12:10:13.312Z,75.60
2019-05-03T12:20:08.138Z,73.65
2019-05-03T12:30:05.426Z,77.54
2019-05-03T12:40:05.385Z,83.02
2019-05-03T12:50:05.618Z,86.04
2019-05-03T13:00:05.299Z,87.07
2019-05-03T13:10:05.787Z,85.29
2019-05-03T13:20:05.294Z,85.61
2019-05-03T13:30:04.775Z,83.58
2019-05-03T13:40:02.911Z,80.34
2019-05-03T13:50:03.551Z,79.53
2019-05-03T14:00:03.311Z,78.18
2019-05-03T14:10:02.759Z,79.42
2019-05-03T14:20:02.433Z,79.18
2019-05-03T14:30:05.302Z,69.23
2019-05-03T14:40:05.457Z,74.75
2019-05-03T14:50:05.464Z,74.36
2019-05-03T15:00:04.159Z,73.10
2019-05-03T15:10:02.984Z,71.64
2019-05-03T15:20:03.147Z,73.77
2019-05-03T15:30:05.822Z,72.87
2019-05-03T15:40:06.948Z,73.05
2019-05-03T15:50:09.653Z,71.82
2019-05-03T16:00:05.434Z,72.59
2019-05-03T16:10:05.197Z,75.58
2019-05-03T16:20:05.006Z,75.68
2019-05-03T16:30:05.131Z,76.97
2019-05-03T16:40:02.915Z,77.09
2019-05-03T16:50:06.823Z,77.36
2019-05-03T17:00:09.783Z,77.78
2019-05-03T17:10:07.403Z,78.85
2019-05-03T17:20:08.821Z,79.13
2019-05-03T17:30:05.217Z,79.22
2019-05-03T17:40:03.172Z,79.17
2019-05-03T17:50:02.916Z,79.65
2019-05-03T18:00:04.606Z,80.68
2019-05-03T18:10:02.518Z,81.32
2019-05-03T18:20:04.468Z,82.48
2019-05-03T18:30:05.332Z,82.96
2019-05-03T18:40:02.429Z,83.53
2019-05-03T18:50:04.705Z,83.87
2019-05-03T19:00:08.687Z,84.73
2019-05-03T19:10:02.588Z,84.05
2019-05-03T19:20:05.311Z,83.52
2019-05-03T19:30:05.186Z,83.47
2019-05-03T19:40:02.835Z,83.90
2019-05-03T19:50:05.498Z,84.02
2019-05-03T20:00:06.479Z,85.13
2019-05-03T20:10:04.787Z,86.04
2019-05-03T20:20:04.664Z,86.32
2019-05-03T20:30:05.335Z,86.77
2019-05-03T20:40:04.873Z,86.85
2019-05-03T20:50:05.262Z,86.53
2019-05-03T21:00:05.154Z,86.54
2019-05-03T21:10:03.454Z,86.97
2019-05-03T21:20:03.443Z,86.94
2019-05-03T21:30:05.217Z,86.92
2019-05-03T21:40:05.023Z,86.71
2019-05-03T21:50:08.658Z,85.36
2019-05-03T22:00:05.470Z,85.53
2019-05-03T22:10:02.727Z,84.25
2019-05-03T22:20:04.774Z,86.51
2019-05-03T22:30:03.341Z,87.67
2019-05-03T22:40:02.619Z,89.90
2019-05-03T22:50:02.423Z,91.22
2019-05-03T23:00:06.776Z,92.17
2019-05-03T23:10:02.946Z,92.55
2019-05-03T23:20:04.512Z,92.62
2019-05-03T23:30:06.315Z,92.82
2019-05-03T23:40:04.982Z,93.24
2019-05-03T23:50:09.228Z,93.46
